createdAt,value
2023-02-26T00:01:45.735Z,3.38
2023-02-26T00:04:13.781Z,3.35
2023-02-26T00:07:00.128Z,3.31
2023-02-26T00:09:28.415Z,3.28
2023-02-26T00:11:58.212Z,3.25
2023-02-26T00:14:27.971Z,3.28
2023-02-26T00:17:21.496Z,3.31
2023-02-26T00:19:49.882Z,3.33
2023-02-26T00:22:18.251Z,3.33
2023-02-26T00:24:46.301Z,3.31
2023-02-26T00:27:15.035Z,3.32
2023-02-26T00:29:43.387Z,3.35
2023-02-26T00:32:12.243Z,3.39
2023-02-26T00:34:41.225Z,3.42
2023-02-26T00:37:29.231Z,3.42
2023-02-26T00:40:06.494Z,3.43
2023-02-26T00:42:35.821Z,3.45
2023-02-26T00:45:04.688Z,3.47
2023-02-26T00:48:00.217Z,3.47
2023-02-26T00:50:28.803Z,3.45
2023-02-26T00:53:21.034Z,3.46
2023-02-26T00:55:49.236Z,3.46
2023-02-26T00:58:17.534Z,3.47
2023-02-26T01:00:48.033Z,3.51
2023-02-26T01:03:16.504Z,3.53
2023-02-26T01:05:45.281Z,3.55
2023-02-26T01:08:21.399Z,3.58
2023-02-26T01:10:49.748Z,3.60
2023-02-26T01:13:19.135Z,3.62
2023-02-26T01:15:51.103Z,3.68
2023-02-26T01:18:26.959Z,3.74
2023-02-26T01:21:01.383Z,3.81
2023-02-26T01:23:35.355Z,3.87
2023-02-26T01:26:13.908Z,3.92
2023-02-26T01:28:42.523Z,3.98
2023-02-26T01:31:37.357Z,4.01
2023-02-26T01:34:39.505Z,4.00
2023-02-26T01:37:23.208Z,3.99
2023-02-26T01:40:25.570Z,3.98
2023-02-26T01:43:03.042Z,3.93
2023-02-26T01:45:39.360Z,3.87
2023-02-26T01:48:17.485Z,3.81
2023-02-26T01:50:45.677Z,3.74
2023-02-26T01:53:20.555Z,3.71
2023-02-26T01:55:53.098Z,3.69
2023-02-26T01:58:22.178Z,3.68
2023-02-26T02:00:52.313Z,3.66
2023-02-26T02:03:23.656Z,3.63
2023-02-26T02:05:58.729Z,3.60
2023-02-26T02:08:27.154Z,3.60
2023-02-26T02:10:55.455Z,3.60
2023-02-26T02:13:40.964Z,3.61
2023-02-26T02:16:20.833Z,3.57
2023-02-26T02:19:24.453Z,3.52
2023-02-26T02:22:23.051Z,3.48
2023-02-26T02:25:14.167Z,3.46
2023-02-26T02:28:04.224Z,3.45
2023-02-26T02:30:54.035Z,3.44
2023-02-26T02:33:28.757Z,3.42
2023-02-26T02:36:13.920Z,3.43
2023-02-26T02:39:09.616Z,3.42
2023-02-26T02:41:44.011Z,3.40
2023-02-26T02:44:16.380Z,3.39
2023-02-26T02:46:47.710Z,3.42
2023-02-26T02:49:25.602Z,3.45
2023-02-26T02:52:26.511Z,3.49
2023-02-26T02:55:23.428Z,3.51
2023-02-26T02:58:01.290Z,3.54
2023-02-26T03:00:35.060Z,3.58
2023-02-26T03:03:19.327Z,3.58
2023-02-26T03:05:48.028Z,3.57
2023-02-26T03:08:20.891Z,3.58
2023-02-26T03:10:49.106Z,3.58
2023-02-26T03:13:19.884Z,3.56
2023-02-26T03:16:11.836Z,3.59
2023-02-26T03:18:58.501Z,3.58
2023-02-26T03:21:34.298Z,3.57
2023-02-26T03:24:16.228Z,3.57
2023-02-26T03:27:03.545Z,3.58
2023-02-26T03:29:53.236Z,3.57
2023-02-26T03:33:11.674Z,3.57
2023-02-26T03:36:04.624Z,3.60
2023-02-26T03:38:38.847Z,3.65
2023-02-26T03:41:13.259Z,3.67
2023-02-26T03:43:54.427Z,3.72
2023-02-26T03:46:32.821Z,3.74
2023-02-26T03:49:07.519Z,3.74
2023-02-26T03:51:38.685Z,3.75
2023-02-26T03:54:39.559Z,3.77
2023-02-26T03:57:27.162Z,3.79
2023-02-26T04:00:17.757Z,3.81
2023-02-26T04:02:57.577Z,3.82
2023-02-26T04:05:30.073Z,3.84
2023-02-26T04:07:59.578Z,3.86
2023-02-26T04:10:36.698Z,3.87
2023-02-26T04:13:05.086Z,3.86
2023-02-26T04:15:33.438Z,3.88
2023-02-26T04:18:01.603Z,3.89
2023-02-26T04:20:30.912Z,3.89
2023-02-26T04:22:58.968Z,3.90
2023-02-26T04:25:27.088Z,3.92
2023-02-26T04:27:55.524Z,3.94
2023-02-26T04:30:24.151Z,3.98
2023-02-26T04:32:52.366Z,3.98
2023-02-26T04:35:20.963Z,3.96
2023-02-26T04:37:49.559Z,3.97
2023-02-26T04:40:18.144Z,3.98
2023-02-26T04:42:47.564Z,4.00
2023-02-26T04:45:19.304Z,4.02
2023-02-26T04:47:47.775Z,4.04
2023-02-26T04:50:16.969Z,4.06
2023-02-26T04:52:45.560Z,4.09
2023-02-26T04:55:14.819Z,4.12
2023-02-26T04:57:44.470Z,4.16
2023-02-26T05:00:13.466Z,4.17
2023-02-26T05:02:41.865Z,4.17
2023-02-26T05:05:10.015Z,4.17
2023-02-26T05:07:38.137Z,4.17
2023-02-26T05:10:08.410Z,4.15
2023-02-26T05:12:36.533Z,4.11
2023-02-26T05:15:06.004Z,4.10
2023-02-26T05:17:35.830Z,4.07
2023-02-26T05:20:05.303Z,4.05
2023-02-26T05:22:33.438Z,4.05
2023-02-26T05:25:01.642Z,4.06
2023-02-26T05:27:30.136Z,4.06
2023-02-26T05:29:58.241Z,4.06
2023-02-26T05:32:27.259Z,4.06
2023-02-26T05:34:57.792Z,4.07
2023-02-26T05:37:26.003Z,4.09
2023-02-26T05:39:56.129Z,4.11
2023-02-26T05:42:25.009Z,4.12
2023-02-26T05:44:53.096Z,4.08
2023-02-26T05:47:21.252Z,4.06
2023-02-26T05:49:49.951Z,4.02
2023-02-26T05:52:18.241Z,4.01
2023-02-26T05:54:46.336Z,4.02
2023-02-26T05:57:14.393Z,4.03
2023-02-26T05:59:42.497Z,4.05
2023-02-26T06:02:10.688Z,4.07
2023-02-26T06:04:38.730Z,4.07
2023-02-26T06:07:06.969Z,4.07
2023-02-26T06:09:35.393Z,4.09
2023-02-26T06:12:03.630Z,4.13
2023-02-26T06:14:31.648Z,4.17
2023-02-26T06:16:59.734Z,4.21
2023-02-26T06:19:27.963Z,4.19
2023-02-26T06:21:56.085Z,4.18
2023-02-26T06:24:24.403Z,4.18
2023-02-26T06:26:53.127Z,4.17
2023-02-26T06:29:21.229Z,4.14
2023-02-26T06:31:49.787Z,4.13
2023-02-26T06:34:18.327Z,4.13
2023-02-26T06:36:46.381Z,4.12
2023-02-26T06:39:14.509Z,4.10
2023-02-26T06:41:42.625Z,4.10
2023-02-26T06:44:11.695Z,4.10
2023-02-26T06:46:39.834Z,4.09
2023-02-26T06:49:08.027Z,4.10
2023-02-26T06:51:36.339Z,4.11
2023-02-26T06:54:05.213Z,4.13
2023-02-26T06:56:33.254Z,3.97
2023-02-26T06:59:01.719Z,3.71
2023-02-26T07:01:31.838Z,3.46
2023-02-26T07:03:59.920Z,3.26
2023-02-26T07:06:28.352Z,3.12
2023-02-26T07:08:56.457Z,3.00
2023-02-26T07:11:25.520Z,2.90
2023-02-26T07:13:53.610Z,2.83
2023-02-26T07:16:22.224Z,2.77
2023-02-26T07:18:50.529Z,2.73
2023-02-26T07:21:18.621Z,2.71
2023-02-26T07:23:46.836Z,2.68
2023-02-26T07:26:15.036Z,2.66
2023-02-26T07:28:43.504Z,2.64
2023-02-26T07:31:11.762Z,2.62
2023-02-26T07:33:39.959Z,2.62
2023-02-26T07:36:08.509Z,2.61
2023-02-26T07:38:36.673Z,2.62
2023-02-26T07:41:05.117Z,2.61
2023-02-26T07:43:33.199Z,2.59
2023-02-26T07:46:01.414Z,2.60
2023-02-26T07:48:29.535Z,2.60
2023-02-26T07:50:57.615Z,2.60
2023-02-26T07:53:26.151Z,2.59
2023-02-26T07:55:54.300Z,2.58
2023-02-26T07:58:22.412Z,2.58
2023-02-26T08:00:52.799Z,2.58
2023-02-26T08:03:21.301Z,2.59
2023-02-26T08:05:49.395Z,2.59
2023-02-26T08:08:17.795Z,2.60
2023-02-26T08:10:46.058Z,2.60
2023-02-26T08:13:14.127Z,2.62
2023-02-26T08:15:44.138Z,2.63
2023-02-26T08:18:12.446Z,2.64
2023-02-26T08:20:40.670Z,2.64
2023-02-26T08:23:09.024Z,2.65
2023-02-26T08:25:37.247Z,2.63
2023-02-26T08:28:05.735Z,2.63
2023-02-26T08:30:34.054Z,2.62
2023-02-26T08:33:02.190Z,2.62
2023-02-26T08:35:30.640Z,2.62
2023-02-26T08:38:00.202Z,2.63
2023-02-26T08:40:28.420Z,2.62
2023-02-26T08:42:58.394Z,2.61
2023-02-26T08:45:28.126Z,2.62
2023-02-26T08:47:57.370Z,2.63
2023-02-26T08:50:26.855Z,2.64
2023-02-26T08:52:55.205Z,2.66
2023-02-26T08:55:23.665Z,2.67
2023-02-26T08:57:51.773Z,2.69
2023-02-26T09:00:20.593Z,2.72
2023-02-26T09:02:48.770Z,2.74
2023-02-26T09:05:17.608Z,2.76
2023-02-26T09:07:45.945Z,2.77
2023-02-26T09:10:15.241Z,2.79
2023-02-26T09:12:43.783Z,2.80
2023-02-26T09:15:14.087Z,2.80
2023-02-26T09:17:42.594Z,2.82
2023-02-26T09:20:11.723Z,2.82
2023-02-26T09:22:40.439Z,2.83
2023-02-26T09:25:08.955Z,2.84
2023-02-26T09:27:37.182Z,2.85
2023-02-26T09:30:06.278Z,2.87
2023-02-26T09:32:34.485Z,2.90
2023-02-26T09:35:04.033Z,2.92
2023-02-26T09:37:32.822Z,2.95
2023-02-26T09:40:00.970Z,2.98
2023-02-26T09:42:53.426Z,2.98
2023-02-26T09:45:32.027Z,2.98
2023-02-26T09:48:04.534Z,2.97
2023-02-26T09:50:39.223Z,2.96
2023-02-26T09:53:17.576Z,2.96
2023-02-26T09:55:48.196Z,2.99
2023-02-26T09:58:35.782Z,3.00
2023-02-26T10:01:11.593Z,3.01
2023-02-26T10:04:20.650Z,3.01
2023-02-26T10:07:29.919Z,3.00
2023-02-26T10:10:30.713Z,2.99
2023-02-26T10:13:00.705Z,2.96
2023-02-26T10:15:37.567Z,2.94
2023-02-26T10:18:18.461Z,2.91
2023-02-26T10:21:01.487Z,2.89
2023-02-26T10:23:43.656Z,2.88
2023-02-26T10:26:14.326Z,2.87
2023-02-26T10:29:15.573Z,2.84
2023-02-26T10:31:50.057Z,2.81
2023-02-26T10:34:37.208Z,2.78
2023-02-26T10:37:18.795Z,2.81
2023-02-26T10:40:01.819Z,3.11
2023-02-26T10:43:00.095Z,3.38
2023-02-26T10:45:40.628Z,3.53
2023-02-26T10:48:18.032Z,3.58
2023-02-26T10:50:53.617Z,3.64
2023-02-26T10:53:23.494Z,3.69
2023-02-26T10:56:02.273Z,3.72
2023-02-26T10:58:30.616Z,3.74
2023-02-26T11:00:59.274Z,3.75
2023-02-26T11:03:41.184Z,3.77
2023-02-26T11:06:12.818Z,3.78
2023-02-26T11:08:44.839Z,3.80
2023-02-26T11:11:39.369Z,3.78
2023-02-26T11:14:09.003Z,3.50
2023-02-26T11:16:45.860Z,3.24
2023-02-26T11:19:15.999Z,3.02
2023-02-26T11:21:47.378Z,2.86
2023-02-26T11:24:45.001Z,2.73
2023-02-26T11:27:22.637Z,2.60
2023-02-26T11:29:57.463Z,2.52
2023-02-26T11:32:34.895Z,2.46
2023-02-26T11:35:07.009Z,2.42
2023-02-26T11:37:38.642Z,2.40
2023-02-26T11:40:16.381Z,2.38
2023-02-26T11:42:51.292Z,2.35
2023-02-26T11:45:21.445Z,2.34
2023-02-26T11:47:56.769Z,2.34
2023-02-26T11:50:26.302Z,2.34
2023-02-26T11:53:07.949Z,2.34
2023-02-26T11:55:40.306Z,2.33
2023-02-26T11:58:16.957Z,2.34
2023-02-26T12:00:46.725Z,2.35
2023-02-26T12:03:22.684Z,2.35
2023-02-26T12:05:53.561Z,2.36
2023-02-26T12:08:38.707Z,2.36
2023-02-26T12:11:41.253Z,2.37
2023-02-26T12:14:15.422Z,2.37
2023-02-26T12:17:00.093Z,2.37
2023-02-26T12:19:46.548Z,2.39
2023-02-26T12:22:44.270Z,2.38
2023-02-26T12:25:22.974Z,2.37
2023-02-26T12:28:10.285Z,2.36
2023-02-26T12:30:45.040Z,2.34
2023-02-26T12:33:51.732Z,2.34
2023-02-26T12:36:48.053Z,2.33
2023-02-26T12:39:36.204Z,2.32
2023-02-26T12:42:12.242Z,2.31
2023-02-26T12:45:18.320Z,2.32
2023-02-26T12:47:53.618Z,2.33
2023-02-26T12:50:57.461Z,2.33
2023-02-26T12:53:47.634Z,2.34
2023-02-26T12:56:44.104Z,2.36
2023-02-26T12:59:26.757Z,2.37
2023-02-26T13:02:40.847Z,2.36
2023-02-26T13:05:36.821Z,2.34
2023-02-26T13:08:31.085Z,2.34
2023-02-26T13:11:05.172Z,2.34
2023-02-26T13:13:36.145Z,2.34
2023-02-26T13:16:15.690Z,2.34
2023-02-26T13:19:01.250Z,2.34
2023-02-26T13:21:34.647Z,2.34
2023-02-26T13:24:10.696Z,2.34
2023-02-26T13:26:40.086Z,2.32
2023-02-26T13:29:27.450Z,2.30
2023-02-26T13:32:02.035Z,2.30
2023-02-26T13:34:36.252Z,2.30
2023-02-26T13:37:06.483Z,2.30
2023-02-26T13:39:46.858Z,2.30
2023-02-26T13:42:27.951Z,2.32
2023-02-26T13:45:08.371Z,2.33
2023-02-26T13:48:10.398Z,2.32
2023-02-26T13:50:46.746Z,2.32
2023-02-26T13:53:24.859Z,2.32
2023-02-26T13:55:54.632Z,2.32
2023-02-26T13:58:22.772Z,2.32
2023-02-26T14:01:04.858Z,2.31
2023-02-26T14:03:55.409Z,2.30
2023-02-26T14:06:37.110Z,2.28
2023-02-26T14:09:23.780Z,2.27
2023-02-26T14:11:54.692Z,2.25
2023-02-26T14:14:22.847Z,2.28
2023-02-26T14:17:03.090Z,2.54
2023-02-26T14:20:08.989Z,2.79
2023-02-26T14:22:43.381Z,2.97
2023-02-26T14:25:35.054Z,3.09
2023-02-26T14:28:25.206Z,3.18
2023-02-26T14:31:13.942Z,3.24
2023-02-26T14:34:07.294Z,3.32
2023-02-26T14:36:46.414Z,3.38
2023-02-26T14:39:39.033Z,3.42
2023-02-26T14:42:11.661Z,3.45
2023-02-26T14:44:44.720Z,3.45
2023-02-26T14:47:13.820Z,3.45
2023-02-26T14:49:45.918Z,3.47
2023-02-26T14:52:32.551Z,3.51
2023-02-26T14:55:05.454Z,3.56
2023-02-26T14:58:12.934Z,3.68
2023-02-26T15:00:59.226Z,3.81
2023-02-26T15:03:37.490Z,3.95
2023-02-26T15:06:44.257Z,4.03
2023-02-26T15:09:25.718Z,4.13
2023-02-26T15:12:01.249Z,4.23
2023-02-26T15:14:48.492Z,4.35
2023-02-26T15:17:30.085Z,4.47
2023-02-26T15:20:08.860Z,4.55
2023-02-26T15:23:01.874Z,4.58
2023-02-26T15:25:36.002Z,4.60
2023-02-26T15:28:07.119Z,4.64
2023-02-26T15:30:36.382Z,4.69
2023-02-26T15:33:12.526Z,4.76
2023-02-26T15:35:43.617Z,4.83
2023-02-26T15:38:11.809Z,4.85
2023-02-26T15:40:40.667Z,4.86
2023-02-26T15:43:12.538Z,4.87
2023-02-26T15:45:44.168Z,4.92
2023-02-26T15:48:17.274Z,4.94
2023-02-26T15:50:50.381Z,4.94
2023-02-26T15:53:38.232Z,4.91
2023-02-26T15:56:12.782Z,4.89
2023-02-26T15:58:45.208Z,4.86
2023-02-26T16:01:17.974Z,4.76
2023-02-26T16:03:47.411Z,4.59
2023-02-26T16:06:28.805Z,4.39
2023-02-26T16:08:59.048Z,4.16
2023-02-26T16:11:37.224Z,4.02
2023-02-26T16:14:08.436Z,3.89
2023-02-26T16:16:50.056Z,3.79
2023-02-26T16:19:25.418Z,3.70
2023-02-26T16:21:55.464Z,3.62
2023-02-26T16:24:24.204Z,3.55
2023-02-26T16:27:07.130Z,3.48
2023-02-26T16:29:37.846Z,3.40
2023-02-26T16:32:12.278Z,3.33
2023-02-26T16:34:44.447Z,3.25
2023-02-26T16:37:36.137Z,3.20
2023-02-26T16:40:27.629Z,3.12
2023-02-26T16:43:43.973Z,3.06
2023-02-26T16:46:17.072Z,3.02
2023-02-26T16:49:05.422Z,3.00
2023-02-26T16:51:38.124Z,3.00
2023-02-26T16:54:18.519Z,3.00
2023-02-26T16:56:51.042Z,3.00
2023-02-26T16:59:25.276Z,2.97
2023-02-26T17:02:06.142Z,2.95
2023-02-26T17:04:37.413Z,2.93
2023-02-26T17:07:15.333Z,2.92
2023-02-26T17:09:53.014Z,2.90
2023-02-26T17:12:40.909Z,2.90
2023-02-26T17:15:21.189Z,2.94
2023-02-26T17:17:49.561Z,2.98
2023-02-26T17:20:17.899Z,3.01
2023-02-26T17:22:46.097Z,3.00
2023-02-26T17:25:19.366Z,3.01
2023-02-26T17:27:49.385Z,3.02
2023-02-26T17:30:24.164Z,3.03
2023-02-26T17:32:52.303Z,3.07
2023-02-26T17:35:20.980Z,3.08
2023-02-26T17:37:49.151Z,3.08
2023-02-26T17:40:24.327Z,3.10
2023-02-26T17:42:53.367Z,3.13
2023-02-26T17:45:21.564Z,3.16
2023-02-26T17:47:50.306Z,3.21
2023-02-26T17:50:40.410Z,3.24
2023-02-26T17:53:09.836Z,3.26
2023-02-26T17:55:39.623Z,3.30
2023-02-26T17:58:15.612Z,3.33
2023-02-26T18:00:46.033Z,3.34
2023-02-26T18:03:14.186Z,3.34
2023-02-26T18:05:43.369Z,3.35
2023-02-26T18:08:21.048Z,3.36
2023-02-26T18:10:50.042Z,3.37
2023-02-26T18:13:18.866Z,3.37
2023-02-26T18:15:47.743Z,3.39
2023-02-26T18:18:16.325Z,3.40
2023-02-26T18:20:46.222Z,3.41
2023-02-26T18:23:17.335Z,3.41
2023-02-26T18:25:47.831Z,3.40
2023-02-26T18:28:25.279Z,3.38
2023-02-26T18:30:54.694Z,3.39
2023-02-26T18:33:24.322Z,3.38
2023-02-26T18:35:56.062Z,3.42
2023-02-26T18:38:27.076Z,3.44
2023-02-26T18:40:55.595Z,3.43
2023-02-26T18:43:23.736Z,3.43
2023-02-26T18:45:52.643Z,3.42
2023-02-26T18:48:21.702Z,3.43
2023-02-26T18:50:50.075Z,3.45
2023-02-26T18:53:23.272Z,3.44
2023-02-26T18:55:53.368Z,3.43
2023-02-26T18:58:22.276Z,3.44
2023-02-26T19:00:51.950Z,3.42
2023-02-26T19:03:20.451Z,3.42
2023-02-26T19:05:59.160Z,3.41
2023-02-26T19:08:28.164Z,3.42
2023-02-26T19:10:57.220Z,3.44
2023-02-26T19:13:25.417Z,3.43
2023-02-26T19:15:53.908Z,3.40
2023-02-26T19:18:22.226Z,3.36
2023-02-26T19:20:51.070Z,3.32
2023-02-26T19:23:19.745Z,3.32
2023-02-26T19:25:48.606Z,3.30
2023-02-26T19:28:16.756Z,3.27
2023-02-26T19:30:45.090Z,3.26
2023-02-26T19:33:13.406Z,3.25
2023-02-26T19:35:41.590Z,3.22
2023-02-26T19:38:10.485Z,3.21
2023-02-26T19:40:39.101Z,3.21
2023-02-26T19:43:07.443Z,3.20
2023-02-26T19:45:35.875Z,3.19
2023-02-26T19:48:04.037Z,3.15
2023-02-26T19:50:32.335Z,3.11
2023-02-26T19:53:00.609Z,3.07
2023-02-26T19:55:28.717Z,3.04
2023-02-26T19:57:59.146Z,3.05
2023-02-26T20:00:27.707Z,3.07
2023-02-26T20:02:55.886Z,3.06
2023-02-26T20:05:24.172Z,3.07
2023-02-26T20:07:52.298Z,3.07
2023-02-26T20:10:23.575Z,3.05
2023-02-26T20:12:51.647Z,3.02
2023-02-26T20:15:19.765Z,3.02
2023-02-26T20:17:47.936Z,3.02
2023-02-26T20:20:16.324Z,3.03
2023-02-26T20:22:44.362Z,3.05
2023-02-26T20:25:12.502Z,3.08
2023-02-26T20:27:40.541Z,3.08
2023-02-26T20:30:09.853Z,3.07
2023-02-26T20:32:38.398Z,3.05
2023-02-26T20:35:06.790Z,3.04
2023-02-26T20:37:35.235Z,3.00
2023-02-26T20:40:05.446Z,2.94
2023-02-26T20:42:34.520Z,2.91
2023-02-26T20:45:03.063Z,2.89
2023-02-26T20:47:32.266Z,2.85
2023-02-26T20:50:00.792Z,2.85
2023-02-26T20:52:28.905Z,2.83
2023-02-26T20:54:57.131Z,2.81
2023-02-26T20:57:25.385Z,2.82
2023-02-26T20:59:54.186Z,2.84
2023-02-26T21:02:22.481Z,2.85
2023-02-26T21:04:50.700Z,2.86
2023-02-26T21:07:22.029Z,2.92
2023-02-26T21:09:52.332Z,2.98
2023-02-26T21:12:20.715Z,3.00
2023-02-26T21:14:52.766Z,3.01
2023-02-26T21:17:22.220Z,3.04
2023-02-26T21:19:51.281Z,3.03
2023-02-26T21:22:20.553Z,3.05
2023-02-26T21:24:48.649Z,3.07
2023-02-26T21:27:19.576Z,3.08
2023-02-26T21:29:47.661Z,3.09
2023-02-26T21:32:16.266Z,3.09
2023-02-26T21:34:44.456Z,3.09
2023-02-26T21:37:12.636Z,3.05
2023-02-26T21:39:40.970Z,3.01
2023-02-26T21:42:12.513Z,2.99
2023-02-26T21:44:40.588Z,2.97
2023-02-26T21:47:08.785Z,2.96
2023-02-26T21:49:37.060Z,2.97
2023-02-26T21:52:07.037Z,2.99
2023-02-26T21:54:35.314Z,3.00
2023-02-26T21:57:03.699Z,3.02
2023-02-26T21:59:31.781Z,3.05
2023-02-26T22:01:59.972Z,3.09
2023-02-26T22:04:28.118Z,3.14
2023-02-26T22:06:56.982Z,3.18
2023-02-26T22:09:25.296Z,3.21
2023-02-26T22:11:53.433Z,3.25
2023-02-26T22:14:21.561Z,3.27
2023-02-26T22:16:49.725Z,3.30
2023-02-26T22:19:17.906Z,3.35
2023-02-26T22:21:46.181Z,3.41
2023-02-26T22:24:14.478Z,3.43
2023-02-26T22:26:42.853Z,3.41
2023-02-26T22:29:11.193Z,3.40
2023-02-26T22:31:39.926Z,3.39
2023-02-26T22:34:08.145Z,3.35
2023-02-26T22:36:36.489Z,3.34
2023-02-26T22:39:06.143Z,3.31
2023-02-26T22:41:35.652Z,3.28
2023-02-26T22:44:05.094Z,3.26
2023-02-26T22:46:34.358Z,3.26
2023-02-26T22:49:03.308Z,3.27
2023-02-26T22:51:33.055Z,3.28
2023-02-26T22:54:02.240Z,3.29
2023-02-26T22:56:30.410Z,3.31
2023-02-26T22:58:58.483Z,3.31
2023-02-26T23:01:27.718Z,3.30
2023-02-26T23:03:56.429Z,3.30
2023-02-26T23:06:24.639Z,3.31
2023-02-26T23:08:52.882Z,3.29
2023-02-26T23:11:21.099Z,3.27
2023-02-26T23:13:49.150Z,3.26
2023-02-26T23:16:17.441Z,3.27
2023-02-26T23:18:48.141Z,3.29
2023-02-26T23:21:16.981Z,3.31
2023-02-26T23:23:45.341Z,3.31
2023-02-26T23:26:14.176Z,3.31
2023-02-26T23:28:42.814Z,3.32
2023-02-26T23:31:11.094Z,3.33
2023-02-26T23:33:39.238Z,3.34
2023-02-26T23:36:07.794Z,3.32
2023-02-26T23:38:36.719Z,3.29
2023-02-26T23:41:05.138Z,3.29
2023-02-26T23:43:33.578Z,3.27
2023-02-26T23:46:01.796Z,3.24
2023-02-26T23:48:30.552Z,3.21
2023-02-26T23:50:58.610Z,3.21
2023-02-26T23:53:27.022Z,3.20
2023-02-26T23:55:58.938Z,3.18
2023-02-26T23:58:28.969Z,3.13
